Time;durP1;ratioP1;P1;durP2;ratioP2;P2;SDS_P1;SDS_P2;PMS_P1;PMS_P2;Temp;Humidity;BMP_temperature;BMP_pressure;BME280_temperature;BME280_humidity;BME280_pressure;Samples;Min_cycle;Max_cycle;Signal;HPM_P1;HPM_P2
2022/01/28 00:01:36;;;;;;;17.60;3.70;;;6.40;99.90;;;;;;5052498;28;20027;-70
2022/01/28 00:04:12;;;;;;;17.07;3.63;;;6.50;99.90;;;;;;5052134;28;20028;-70
2022/01/28 00:06:38;;;;;;;18.47;3.63;;;6.40;99.90;;;;;;5052473;28;20021;-70
2022/01/28 00:09:05;;;;;;;14.07;3.20;;;6.40;99.90;;;;;;5052052;28;20075;-69
2022/01/28 00:11:31;;;;;;;20.47;2.97;;;6.40;99.90;;;;;;5052616;28;20052;-70
2022/01/28 00:38:31;;;;;;;16.90;3.17;;;6.30;99.90;;;;;;5051640;28;20381;-70
2022/01/28 00:40:58;;;;;;;28.83;3.78;;;6.30;99.90;;;;;;5051753;28;20108;-70
2022/01/28 00:43:24;;;;;;;13.87;2.43;;;6.30;99.90;;;;;;5051410;28;20037;-70
2022/01/28 00:45:50;;;;;;;16.00;2.60;;;6.30;99.90;;;;;;5051413;28;20047;-70
2022/01/28 00:48:16;;;;;;;17.03;2.43;;;6.30;99.90;;;;;;5051622;28;20036;-69
2022/01/28 00:50:42;;;;;;;16.03;2.80;;;6.20;99.90;;;;;;5051089;28;20028;-70
2022/01/28 00:53:10;;;;;;;15.80;2.30;;;6.20;99.90;;;;;;5051319;28;20032;-70
2022/01/28 00:55:35;;;;;;;23.97;2.67;;;6.20;99.90;;;;;;5051479;28;20581;-69
2022/01/28 00:58:02;;;;;;;18.10;2.97;;;6.20;99.90;;;;;;5051307;28;20131;-70
2022/01/28 01:00:29;;;;;;;13.60;2.13;;;6.20;99.90;;;;;;5051444;28;20500;-70
2022/01/28 01:02:54;;;;;;;14.13;2.17;;;6.30;99.90;;;;;;5051976;28;20033;-70
2022/01/28 01:05:22;;;;;;;15.60;2.67;;;6.20;99.90;;;;;;5033436;28;20035;-70
2022/01/28 01:07:48;;;;;;;15.30;2.00;;;6.20;99.90;;;;;;5033528;28;20056;-69
2022/01/28 01:10:14;;;;;;;15.33;2.47;;;6.20;99.90;;;;;;5051355;28;20036;-69
2022/01/28 01:12:44;;;;;;;16.40;2.50;;;6.20;99.90;;;;;;5051500;28;20033;-70
2022/01/28 01:15:13;;;;;;;17.57;2.33;;;6.20;99.90;;;;;;5051264;28;20028;-70
2022/01/28 01:17:46;;;;;;;14.67;2.10;;;6.20;99.90;;;;;;5051237;28;20082;-70
2022/01/28 01:22:52;;;;;;;20.33;2.60;;;6.20;99.90;;;;;;5051386;28;20110;-70
2022/01/28 01:25:25;;;;;;;15.87;2.40;;;6.10;99.90;;;;;;5050882;28;20036;-70
2022/01/28 01:27:54;;;;;;;13.50;2.80;;;6.20;99.90;;;;;;5051187;28;20112;-69
2022/01/28 01:30:21;;;;;;;15.37;2.33;;;6.20;99.90;;;;;;5051276;28;20056;-70
2022/01/28 01:32:47;;;;;;;24.13;2.80;;;6.20;99.90;;;;;;5051301;28;20032;-70
2022/01/28 01:35:13;;;;;;;20.97;2.13;;;6.10;99.90;;;;;;5050854;28;20480;-70
2022/01/28 01:37:39;;;;;;;13.87;2.03;;;6.10;99.90;;;;;;5050947;28;20025;-70
2022/01/28 01:40:06;;;;;;;16.73;2.90;;;6.10;99.90;;;;;;5033568;28;20115;-69
2022/01/28 01:43:05;;;;;;;14.50;2.40;;;6.10;99.90;;;;;;5051050;28;20045;-70
2022/01/28 01:53:30;;;;;;;20.03;2.67;;;6.00;99.90;;;;;;5050741;28;20370;-70
2022/01/28 01:55:56;;;;;;;13.47;1.90;;;5.90;99.90;;;;;;5051015;28;20120;-70
2022/01/28 01:58:29;;;;;;;21.50;3.37;;;5.90;99.90;;;;;;5050825;28;20111;-70
2022/01/28 02:00:56;;;;;;;15.73;2.30;;;5.90;99.90;;;;;;5051260;28;20029;-70
2022/01/28 02:03:22;;;;;;;18.07;2.30;;;5.90;99.90;;;;;;5053402;28;20082;-70
2022/01/28 02:05:48;;;;;;;16.40;2.30;;;5.90;99.90;;;;;;5054422;28;20477;-71
2022/01/28 02:08:14;;;;;;;14.37;1.80;;;5.90;99.90;;;;;;5054671;28;20021;-70
2022/01/28 02:10:40;;;;;;;17.50;2.33;;;5.80;99.90;;;;;;5054679;28;20029;-70
2022/01/28 02:13:06;;;;;;;16.60;2.97;;;5.90;99.90;;;;;;5054473;28;20017;-70
2022/01/28 02:15:32;;;;;;;20.87;4.40;;;5.80;99.90;;;;;;5054222;28;20025;-70
2022/01/28 02:17:59;;;;;;;17.97;2.87;;;5.80;99.90;;;;;;5053985;28;20540;-70
2022/01/28 02:20:34;;;;;;;19.33;4.27;;;5.80;99.90;;;;;;5036444;28;20036;-70
2022/01/28 02:23:00;;;;;;;19.60;3.57;;;5.80;99.90;;;;;;5053697;28;20032;-70
2022/01/28 02:25:31;;;;;;;16.53;3.00;;;5.80;99.90;;;;;;5054147;28;20535;-70
2022/01/28 02:28:01;;;;;;;18.23;2.70;;;5.70;99.90;;;;;;5054167;28;20017;-70
2022/01/28 02:30:27;;;;;;;16.87;2.67;;;5.70;99.90;;;;;;5053904;28;20586;-70
2022/01/28 02:33:08;;;;;;;18.50;3.30;;;5.70;99.90;;;;;;5053660;28;20036;-70
2022/01/28 02:35:34;;;;;;;17.13;3.13;;;5.80;99.90;;;;;;5053574;28;20537;-70
2022/01/28 02:38:00;;;;;;;22.47;3.90;;;5.80;99.90;;;;;;5053795;28;20438;-70
2022/01/28 02:40:26;;;;;;;21.17;4.07;;;5.80;99.90;;;;;;5053576;28;20502;-70
2022/01/28 02:43:01;;;;;;;15.07;3.40;;;5.80;99.90;;;;;;5053381;28;20485;-70
2022/01/28 02:45:36;;;;;;;20.13;5.00;;;5.80;99.90;;;;;;5053375;28;20082;-70
2022/01/28 02:48:07;;;;;;;23.40;4.67;;;5.80;99.90;;;;;;5053398;28;20032;-70
2022/01/28 02:50:47;;;;;;;15.37;3.00;;;5.70;99.90;;;;;;5053560;28;20025;-70
2022/01/28 02:53:22;;;;;;;15.43;3.00;;;5.70;99.90;;;;;;5053291;28;20615;-70
2022/01/28 02:55:48;;;;;;;19.50;3.23;;;5.70;99.90;;;;;;5053309;28;20108;-70
2022/01/28 02:58:20;;;;;;;22.83;3.93;;;5.70;99.90;;;;;;5053235;28;20029;-70
2022/01/28 03:00:47;;;;;;;13.93;3.17;;;5.80;99.90;;;;;;5035473;28;20392;-70
2022/01/28 03:03:18;;;;;;;14.77;2.70;;;5.70;99.90;;;;;;5052937;28;20067;-70
2022/01/28 03:05:44;;;;;;;17.60;2.77;;;5.70;99.90;;;;;;5053165;28;20401;-70
2022/01/28 03:08:12;;;;;;;12.93;2.00;;;5.70;99.90;;;;;;5052862;28;20074;-70
2022/01/28 03:10:48;;;;;;;14.37;2.43;;;5.80;99.90;;;;;;5053140;28;20032;-70
2022/01/28 03:13:28;;;;;;;12.20;1.73;;;5.70;99.90;;;;;;5034431;28;20079;-70
2022/01/28 03:16:05;;;;;;;12.83;2.10;;;5.70;99.90;;;;;;5053152;28;20028;-70
2022/01/28 03:18:41;;;;;;;14.30;2.07;;;5.60;99.90;;;;;;5052757;28;20092;-70
2022/01/28 03:21:20;;;;;;;17.63;2.10;;;5.60;99.90;;;;;;5052868;28;20040;-70
2022/01/28 03:23:46;;;;;;;20.77;2.70;;;5.60;99.90;;;;;;5052641;28;20033;-70
2022/01/28 03:26:13;;;;;;;14.20;2.37;;;5.60;99.90;;;;;;5053223;28;20028;-70
2022/01/28 03:28:39;;;;;;;14.23;2.53;;;5.60;99.90;;;;;;5034843;28;20078;-70
2022/01/28 03:31:05;;;;;;;14.13;2.57;;;5.60;99.90;;;;;;5052618;28;20055;-70
2022/01/28 03:33:31;;;;;;;14.77;3.20;;;5.60;99.90;;;;;;5052485;28;20482;-70
2022/01/28 03:35:57;;;;;;;18.97;2.80;;;5.70;99.90;;;;;;5052619;28;20049;-70
2022/01/28 03:38:23;;;;;;;20.47;3.20;;;5.70;99.90;;;;;;5034658;28;20037;-70
2022/01/28 03:40:52;;;;;;;20.57;2.70;;;5.70;99.90;;;;;;5052687;28;20028;-70
2022/01/28 03:43:17;;;;;;;17.73;3.00;;;5.70;99.90;;;;;;5052029;28;20489;-70
2022/01/28 03:45:43;;;;;;;16.80;3.70;;;5.70;99.90;;;;;;5034426;28;20034;-70
2022/01/28 03:48:09;;;;;;;19.53;4.73;;;5.70;99.90;;;;;;5052170;28;20025;-70
2022/01/28 03:50:35;;;;;;;18.60;3.90;;;5.60;99.90;;;;;;5052210;28;20103;-70
2022/01/28 03:53:03;;;;;;;17.83;2.50;;;5.60;99.90;;;;;;5034358;28;20033;-70
2022/01/28 03:55:28;;;;;;;16.87;2.93;;;5.60;99.90;;;;;;5052016;28;20028;-70
2022/01/28 03:57:54;;;;;;;16.77;2.87;;;5.60;99.90;;;;;;5052077;28;20062;-70
2022/01/28 04:00:25;;;;;;;14.03;2.43;;;5.60;99.90;;;;;;5051943;28;20070;-70
2022/01/28 04:03:01;;;;;;;13.73;1.90;;;5.60;99.90;;;;;;5052113;28;20025;-70
2022/01/28 04:13:32;;;;;;;13.33;2.03;;;5.50;99.90;;;;;;5051719;28;20490;-70
2022/01/28 04:18:24;;;;;;;21.53;3.47;;;5.40;99.90;;;;;;5051606;28;20037;-70
2022/01/28 04:20:50;;;;;;;12.27;2.53;;;5.40;99.90;;;;;;5034031;28;20064;-70
2022/01/28 04:23:16;;;;;;;12.53;1.80;;;5.50;99.90;;;;;;5051382;28;20112;-70
2022/01/28 04:25:42;;;;;;;12.30;1.73;;;5.40;99.90;;;;;;5033058;28;20096;-70
2022/01/28 04:28:08;;;;;;;14.50;1.87;;;5.40;99.90;;;;;;5051587;28;20025;-71
2022/01/28 04:30:34;;;;;;;11.73;2.13;;;5.40;99.90;;;;;;5051577;28;20025;-70
2022/01/28 04:33:00;;;;;;;10.93;2.03;;;5.40;99.90;;;;;;5051416;28;20048;-70
2022/01/28 04:35:26;;;;;;;10.13;2.37;;;5.50;99.90;;;;;;5051268;28;20075;-70
2022/01/28 04:38:16;;;;;;;13.50;2.60;;;5.40;99.90;;;;;;5051229;28;20029;-70
2022/01/28 04:41:12;;;;;;;14.30;2.20;;;5.40;99.90;;;;;;5051588;28;20047;-70
2022/01/28 04:46:44;;;;;;;7.67;1.70;;;5.30;99.90;;;;;;5027973;28;20128;-70
2022/01/28 04:49:16;;;;;;;15.43;1.77;;;5.30;99.90;;;;;;5051347;28;20036;-70
2022/01/28 04:52:29;;;;;;;13.17;1.80;;;5.30;99.90;;;;;;5051234;28;20375;-70
2022/01/28 05:05:34;;;;;;;13.10;1.90;;;5.20;99.90;;;;;;5019391;28;20048;-70
2022/01/28 05:26:40;;;;;;;12.50;2.10;;;5.10;99.90;;;;;;5050785;28;20021;-71
2022/01/28 05:29:07;;;;;;;11.07;2.00;;;5.00;99.90;;;;;;5050748;28;20409;-71
2022/01/28 05:31:33;;;;;;;14.63;2.07;;;5.00;99.90;;;;;;5050665;28;20027;-71
2022/01/28 05:33:59;;;;;;;14.07;2.47;;;5.00;99.90;;;;;;5050476;28;20471;-71
2022/01/28 05:36:26;;;;;;;13.47;1.73;;;5.00;99.90;;;;;;5052353;28;20033;-71
2022/01/28 05:38:52;;;;;;;11.40;1.90;;;5.00;99.90;;;;;;5054778;28;20024;-71
2022/01/28 05:41:19;;;;;;;12.83;2.30;;;5.00;99.90;;;;;;5054690;28;20037;-71
2022/01/28 05:43:45;;;;;;;10.77;1.70;;;5.00;99.90;;;;;;5178854;22;20139;-73
2022/01/28 05:46:11;;;;;;;13.80;2.03;;;5.00;99.90;;;;;;5054718;28;20101;-73
2022/01/28 05:48:37;;;;;;;13.20;1.90;;;5.00;99.90;;;;;;5054529;28;20032;-72
2022/01/28 05:51:02;;;;;;;9.70;2.07;;;5.00;99.90;;;;;;5054446;28;20025;-72
2022/01/28 05:53:28;;;;;;;12.23;2.23;;;5.00;99.90;;;;;;5054289;28;20029;-73
2022/01/28 05:55:54;;;;;;;9.80;1.90;;;5.00;99.90;;;;;;5054724;28;20068;-72
2022/01/28 05:58:20;;;;;;;12.00;2.30;;;4.90;99.90;;;;;;5054376;28;20506;-72
2022/01/28 06:00:46;;;;;;;7.67;1.90;;;5.00;99.90;;;;;;5054517;28;20064;-73
2022/01/28 06:03:12;;;;;;;13.03;2.63;;;5.00;99.90;;;;;;5054178;28;20135;-73
2022/01/28 06:05:38;;;;;;;13.37;2.20;;;5.00;99.90;;;;;;5054196;28;20040;-73
2022/01/28 06:08:04;;;;;;;11.40;1.83;;;5.10;99.90;;;;;;5036303;28;20040;-73
2022/01/28 06:10:30;;;;;;;12.57;2.07;;;5.10;99.90;;;;;;5054234;28;20025;-73
2022/01/28 06:12:56;;;;;;;21.37;4.63;;;5.10;99.90;;;;;;5036391;28;20127;-73
2022/01/28 06:15:22;;;;;;;15.23;2.97;;;5.10;99.90;;;;;;5054013;28;20029;-73
2022/01/28 06:17:47;;;;;;;16.13;3.80;;;5.10;99.90;;;;;;5036232;28;20549;-73
2022/01/28 06:20:19;;;;;;;12.03;2.30;;;5.10;99.90;;;;;;5053982;28;20539;-73
2022/01/28 06:22:45;;;;;;;12.73;2.00;;;5.10;99.90;;;;;;5036025;28;20064;-72
2022/01/28 06:25:15;;;;;;;13.40;2.27;;;5.10;99.90;;;;;;5053677;28;20035;-73
2022/01/28 06:27:42;;;;;;;12.87;2.43;;;5.10;99.90;;;;;;5053692;28;20535;-73
2022/01/28 06:30:09;;;;;;;13.03;2.10;;;5.20;99.90;;;;;;5054269;28;20132;-72
2022/01/28 06:32:35;;;;;;;16.73;2.67;;;5.10;99.90;;;;;;5053954;28;20021;-73
2022/01/28 06:35:08;;;;;;;12.27;2.10;;;5.20;99.90;;;;;;5053941;28;20374;-73
2022/01/28 06:37:39;;;;;;;14.97;2.13;;;5.20;99.90;;;;;;5053800;28;20068;-73
2022/01/28 06:40:10;;;;;;;13.67;2.77;;;5.30;99.90;;;;;;5053782;28;20033;-73
2022/01/28 06:42:37;;;;;;;15.30;2.50;;;5.30;99.90;;;;;;5053612;28;20033;-73
2022/01/28 06:45:04;;;;;;;17.60;2.73;;;5.30;99.90;;;;;;5053239;28;20025;-74
2022/01/28 06:47:32;;;;;;;13.00;2.03;;;5.40;99.90;;;;;;5052709;28;20021;-73
2022/01/28 06:49:58;;;;;;;13.17;2.97;;;5.40;99.90;;;;;;5053505;28;20063;-73
2022/01/28 06:52:24;;;;;;;19.07;2.67;;;5.30;99.90;;;;;;5035594;28;20044;-73
2022/01/28 06:54:50;;;;;;;10.70;2.20;;;5.40;99.90;;;;;;5052966;28;20534;-73
2022/01/28 06:57:16;;;;;;;12.47;2.40;;;5.30;99.90;;;;;;5053341;28;20397;-73
2022/01/28 06:59:42;;;;;;;16.47;2.60;;;5.30;99.90;;;;;;5035232;28;20041;-73
2022/01/28 07:02:08;;;;;;;19.77;2.33;;;5.30;99.90;;;;;;5053236;28;20040;-73
2022/01/28 07:04:34;;;;;;;14.60;1.80;;;5.40;99.90;;;;;;5034959;28;20497;-73
2022/01/28 07:07:00;;;;;;;19.33;3.40;;;5.40;99.90;;;;;;5053022;28;20060;-73
2022/01/28 07:09:26;;;;;;;12.40;1.97;;;5.40;99.90;;;;;;5053186;28;20067;-73
2022/01/28 07:11:52;;;;;;;15.57;2.43;;;5.40;99.90;;;;;;5053075;28;20028;-72
2022/01/28 07:14:18;;;;;;;20.70;3.33;;;5.40;99.90;;;;;;5052635;28;20386;-73
2022/01/28 07:16:44;;;;;;;14.27;4.07;;;5.40;99.90;;;;;;5035250;28;20050;-73
2022/01/28 07:19:10;;;;;;;14.40;3.00;;;5.40;99.90;;;;;;5052874;28;20033;-72
2022/01/28 07:21:36;;;;;;;18.10;2.20;;;5.40;99.90;;;;;;5052904;28;20037;-73
2022/01/28 07:24:03;;;;;;;14.87;2.47;;;5.40;99.90;;;;;;5034900;28;20037;-73
2022/01/28 07:26:29;;;;;;;12.50;2.00;;;5.40;99.90;;;;;;5052791;28;20029;-73
2022/01/28 07:28:55;;;;;;;14.83;2.17;;;5.30;99.90;;;;;;5034723;28;20560;-73
2022/01/28 07:31:21;;;;;;;14.53;3.00;;;5.30;99.90;;;;;;5052726;28;20117;-73
2022/01/28 07:33:47;;;;;;;18.17;3.07;;;5.30;99.90;;;;;;5052310;28;20473;-73
2022/01/28 07:36:13;;;;;;;12.97;2.57;;;5.40;99.90;;;;;;5052608;28;20029;-73
2022/01/28 07:38:39;;;;;;;17.07;3.17;;;5.40;99.90;;;;;;5052479;28;20524;-73
2022/01/28 07:41:05;;;;;;;14.77;2.47;;;5.50;99.90;;;;;;5052460;28;20524;-73
2022/01/28 07:43:34;;;;;;;10.53;3.57;;;5.40;99.90;;;;;;5033983;28;20035;-73
2022/01/28 07:46:00;;;;;;;18.60;5.93;;;5.40;99.90;;;;;;5034415;28;20037;-73
2022/01/28 07:48:26;;;;;;;15.13;3.83;;;5.40;99.90;;;;;;5052361;28;20043;-73
2022/01/28 07:50:52;;;;;;;22.27;4.10;;;5.50;99.90;;;;;;5052232;28;20055;-73
2022/01/28 07:53:18;;;;;;;16.57;3.30;;;5.40;99.90;;;;;;5052023;28;20028;-73
2022/01/28 07:55:44;;;;;;;13.60;2.60;;;5.40;99.90;;;;;;5034395;28;20505;-73
2022/01/28 07:58:10;;;;;;;15.83;2.83;;;5.40;99.90;;;;;;5051953;28;20504;-73
2022/01/28 08:00:36;;;;;;;13.03;2.77;;;5.40;99.90;;;;;;5052074;28;20176;-73
2022/01/28 08:03:02;;;;;;;16.77;3.53;;;5.40;99.90;;;;;;5052298;28;20049;-73
2022/01/28 08:05:28;;;;;;;16.37;2.67;;;5.40;99.90;;;;;;5033875;28;20539;-73
2022/01/28 08:07:54;;;;;;;19.30;2.93;;;5.40;99.90;;;;;;5051804;28;20029;-73
2022/01/28 08:10:20;;;;;;;15.03;2.90;;;5.50;99.90;;;;;;5051950;28;20029;-73
2022/01/28 08:12:53;;;;;;;21.47;3.07;;;5.50;99.90;;;;;;5051715;28;20248;-73
2022/01/28 08:15:20;;;;;;;17.60;2.33;;;5.50;99.90;;;;;;5051744;28;20132;-73
2022/01/28 08:17:46;;;;;;;20.73;2.70;;;5.40;99.90;;;;;;5051532;28;20060;-73
2022/01/28 08:20:13;;;;;;;12.63;2.40;;;5.50;99.90;;;;;;5051844;28;20122;-73
2022/01/28 08:22:48;;;;;;;16.47;3.33;;;5.50;99.90;;;;;;5051696;28;20039;-72
2022/01/28 08:25:16;;;;;;;18.43;4.27;;;5.50;99.90;;;;;;5051405;28;20126;-73
2022/01/28 08:27:43;;;;;;;16.77;3.33;;;5.50;99.90;;;;;;5033854;28;20484;-73
2022/01/28 08:30:14;;;;;;;15.43;3.17;;;5.60;99.90;;;;;;5051712;28;20373;-73
2022/01/28 08:32:41;;;;;;;26.53;7.07;;;5.60;99.90;;;;;;5033674;28;20025;-73
2022/01/28 08:35:08;;;;;;;15.87;3.80;;;5.60;99.90;;;;;;5051359;28;20041;-73
2022/01/28 08:37:34;;;;;;;12.50;2.60;;;5.70;99.90;;;;;;5051221;28;20028;-73
2022/01/28 08:40:01;;;;;;;13.97;2.43;;;5.70;99.90;;;;;;5051461;28;20516;-73
2022/01/28 08:42:27;;;;;;;29.67;3.60;;;5.70;99.90;;;;;;5033348;28;20043;-73
2022/01/28 08:44:53;;;;;;;15.57;3.07;;;5.70;99.90;;;;;;5051041;28;20037;-73
2022/01/28 08:47:19;;;;;;;19.33;5.10;;;5.70;99.90;;;;;;5033390;28;20025;-73
2022/01/28 08:49:46;;;;;;;18.20;4.40;;;5.80;99.90;;;;;;5051108;28;20585;-73
2022/01/28 08:52:13;;;;;;;16.53;3.60;;;5.90;99.90;;;;;;5051139;28;20061;-73
2022/01/28 08:54:40;;;;;;;17.90;4.23;;;5.90;99.90;;;;;;5051041;28;20039;-73
2022/01/28 08:57:06;;;;;;;24.37;5.33;;;5.90;99.90;;;;;;5033102;28;20116;-73
2022/01/28 08:59:32;;;;;;;16.60;4.07;;;5.90;99.90;;;;;;5051008;28;20147;-73
2022/01/28 09:01:57;;;;;;;23.70;5.23;;;5.80;99.90;;;;;;5050997;28;20032;-73
2022/01/28 09:04:23;;;;;;;18.37;4.43;;;5.90;99.90;;;;;;5050753;28;20072;-73
2022/01/28 09:06:49;;;;;;;19.17;4.47;;;5.90;99.90;;;;;;5051452;28;20382;-73
2022/01/28 09:09:18;;;;;;;16.87;4.30;;;6.00;99.90;;;;;;5050911;28;20489;-73
2022/01/28 09:11:48;;;;;;;15.90;3.80;;;6.10;99.90;;;;;;5050513;28;20025;-73
2022/01/28 09:14:14;;;;;;;17.63;3.40;;;6.10;99.90;;;;;;5050905;28;20378;-73
2022/01/28 09:16:42;;;;;;;16.23;3.80;;;6.10;99.90;;;;;;5050882;28;20120;-73
2022/01/28 09:19:08;;;;;;;18.47;4.27;;;6.10;99.90;;;;;;5050770;28;20481;-73
2022/01/28 09:21:34;;;;;;;21.40;4.17;;;6.20;99.90;;;;;;5050722;28;20037;-73
2022/01/28 09:24:00;;;;;;;19.87;4.47;;;6.10;99.90;;;;;;5050555;28;20040;-73
2022/01/28 09:26:26;;;;;;;16.40;4.70;;;6.10;99.90;;;;;;5050890;28;20480;-73
2022/01/28 09:28:52;;;;;;;17.30;4.60;;;6.10;99.90;;;;;;5051085;28;20036;-73
2022/01/28 09:31:18;;;;;;;18.70;4.17;;;6.20;99.90;;;;;;5050695;28;20021;-73
2022/01/28 09:33:45;;;;;;;12.73;4.07;;;6.20;99.90;;;;;;5050648;28;20034;-73
2022/01/28 09:36:11;;;;;;;19.10;3.57;;;6.20;99.90;;;;;;5050882;28;20033;-73
2022/01/28 09:38:37;;;;;;;21.20;3.80;;;6.20;99.90;;;;;;5050852;28;20032;-73
2022/01/28 09:41:05;;;;;;;16.40;3.83;;;6.30;99.90;;;;;;5050807;28;20063;-73
2022/01/28 09:43:32;;;;;;;20.20;3.80;;;6.20;99.90;;;;;;5050312;28;20107;-73
2022/01/28 09:45:58;;;;;;;17.30;3.60;;;6.30;99.90;;;;;;5050621;28;20108;-73
2022/01/28 09:48:24;;;;;;;15.43;3.80;;;6.20;99.90;;;;;;5050429;28;20029;-73
2022/01/28 09:50:50;;;;;;;17.73;3.60;;;6.20;99.90;;;;;;5050783;28;20028;-73
2022/01/28 09:53:20;;;;;;;18.23;3.90;;;6.20;99.90;;;;;;5050491;28;20124;-73
2022/01/28 09:55:47;;;;;;;19.47;4.43;;;6.30;99.90;;;;;;5050552;28;20057;-73
2022/01/28 09:58:14;;;;;;;19.03;4.10;;;6.30;99.90;;;;;;5032689;28;20094;-73
2022/01/28 10:00:40;;;;;;;17.17;3.97;;;6.30;99.90;;;;;;5050431;28;20025;-73
2022/01/28 10:03:10;;;;;;;23.87;5.37;;;6.30;99.90;;;;;;5050418;28;20029;-72
2022/01/28 10:05:39;;;;;;;23.30;3.77;;;6.30;99.90;;;;;;5050314;28;20033;-73
2022/01/28 10:08:05;;;;;;;15.07;3.63;;;6.40;99.90;;;;;;5050422;28;20035;-73
2022/01/28 10:10:40;;;;;;;21.67;3.87;;;6.50;99.90;;;;;;5050362;28;20028;-73
2022/01/28 10:13:14;;;;;;;19.97;4.33;;;6.50;99.90;;;;;;5050346;28;20536;-73
2022/01/28 10:15:58;;;;;;;16.03;3.63;;;6.50;99.90;;;;;;5050411;28;20409;-73
2022/01/28 10:18:42;;;;;;;17.93;3.17;;;6.60;99.90;;;;;;5050309;28;20029;-73
2022/01/28 10:21:37;;;;;;;24.07;3.73;;;6.60;99.90;;;;;;5050344;28;20435;-73
2022/01/28 10:24:19;;;;;;;12.80;2.83;;;6.70;99.90;;;;;;5052481;28;20490;-73
2022/01/28 10:26:45;;;;;;;16.03;3.03;;;6.80;99.90;;;;;;5053853;28;20032;-73
2022/01/28 10:29:18;;;;;;;20.23;3.77;;;6.70;99.90;;;;;;5035904;28;20409;-73
2022/01/28 10:31:48;;;;;;;17.07;2.67;;;6.90;99.90;;;;;;5053704;28;20029;-73
2022/01/28 10:34:17;;;;;;;31.47;4.47;;;6.90;99.90;;;;;;5053433;28;20111;-73
2022/01/28 10:36:47;;;;;;;21.02;4.68;;;6.90;99.90;;;;;;5053687;28;20496;-73
2022/01/28 10:39:21;;;;;;;23.67;4.17;;;6.90;99.90;;;;;;5053549;28;20393;-73
2022/01/28 10:42:08;;;;;;;26.03;6.17;;;7.00;99.90;;;;;;5053590;28;20112;-73
2022/01/28 10:44:54;;;;;;;16.70;3.30;;;6.90;99.90;;;;;;5053072;28;20231;-73
2022/01/28 10:47:35;;;;;;;15.67;2.80;;;6.90;99.90;;;;;;5053582;28;20386;-73
2022/01/28 10:50:20;;;;;;;18.83;3.20;;;7.00;99.90;;;;;;5053365;28;20441;-73
2022/01/28 10:52:56;;;;;;;20.10;3.23;;;7.00;99.90;;;;;;5053387;28;20156;-73
2022/01/28 10:55:22;;;;;;;15.60;2.70;;;7.00;99.90;;;;;;5053207;28;20116;-73
2022/01/28 10:57:59;;;;;;;19.20;2.83;;;6.90;99.90;;;;;;5053348;28;20040;-73
2022/01/28 11:00:31;;;;;;;17.77;3.30;;;6.90;99.90;;;;;;5053242;28;20137;-73
2022/01/28 11:03:02;;;;;;;17.63;3.07;;;7.00;99.90;;;;;;5053379;28;20091;-73
2022/01/28 11:05:30;;;;;;;22.30;3.20;;;7.00;99.90;;;;;;5052960;28;20029;-73
2022/01/28 11:07:57;;;;;;;16.83;3.00;;;6.90;99.90;;;;;;5053030;28;20437;-73
2022/01/28 11:10:24;;;;;;;21.50;3.43;;;6.90;99.90;;;;;;5053168;28;20094;-73
2022/01/28 11:12:51;;;;;;;19.07;2.73;;;6.90;99.90;;;;;;5052968;28;20079;-73
2022/01/28 11:15:18;;;;;;;18.43;2.50;;;7.10;99.90;;;;;;5052824;28;20035;-73
2022/01/28 11:17:44;;;;;;;14.60;2.83;;;7.20;99.90;;;;;;5052814;28;20036;-73
2022/01/28 11:20:12;;;;;;;23.47;3.10;;;7.20;99.90;;;;;;5052751;28;20029;-73
2022/01/28 11:22:51;;;;;;;16.80;2.87;;;7.10;99.90;;;;;;5052877;28;20033;-73
2022/01/28 11:25:38;;;;;;;19.13;2.47;;;7.20;99.90;;;;;;5052503;28;20416;-73
2022/01/28 11:28:13;;;;;;;16.63;2.50;;;7.20;99.90;;;;;;5034741;28;20021;-73
2022/01/28 11:30:51;;;;;;;19.13;2.87;;;7.20;99.90;;;;;;5052670;28;20104;-73
2022/01/28 11:33:17;;;;;;;17.30;2.93;;;7.10;99.90;;;;;;5052136;28;20401;-72
2022/01/28 11:35:46;;;;;;;17.17;2.83;;;7.10;99.90;;;;;;5052700;28;20083;-72
2022/01/28 11:38:24;;;;;;;24.00;5.00;;;7.10;99.90;;;;;;5034606;28;20029;-72
2022/01/28 11:40:55;;;;;;;18.90;3.03;;;7.10;99.90;;;;;;5052427;28;20028;-72
2022/01/28 11:43:24;;;;;;;25.03;3.00;;;7.10;99.90;;;;;;5047778;23;20037;-73
2022/01/28 11:46:11;;;;;;;20.00;2.85;;;7.20;99.90;;;;;;5034618;28;20025;-73
2022/01/28 11:48:51;;;;;;;20.00;3.07;;;7.10;99.90;;;;;;5052372;28;20435;-73
2022/01/28 11:51:24;;;;;;;14.07;2.00;;;7.10;99.90;;;;;;5052641;28;20118;-73
2022/01/28 11:54:02;;;;;;;14.50;2.60;;;7.10;99.90;;;;;;5034512;28;20036;-73
2022/01/28 11:56:30;;;;;;;13.57;2.97;;;7.20;99.90;;;;;;5034537;28;20488;-73
2022/01/28 11:59:05;;;;;;;16.10;2.60;;;7.20;99.90;;;;;;5052279;28;20114;-73
2022/01/28 12:01:40;;;;;;;15.77;2.30;;;7.20;99.90;;;;;;5052230;28;20033;-73
2022/01/28 12:04:25;;;;;;;20.97;2.73;;;7.30;99.90;;;;;;5051672;28;20040;-73
2022/01/28 12:06:55;;;;;;;15.10;2.33;;;7.40;99.90;;;;;;5052341;28;20454;-73
2022/01/28 12:09:26;;;;;;;13.30;1.90;;;7.30;99.90;;;;;;5052165;28;20116;-73
2022/01/28 12:11:52;;;;;;;16.60;2.47;;;7.30;99.90;;;;;;5034205;28;20024;-73
2022/01/28 12:15:04;;;;;;;16.50;3.03;;;7.30;99.90;;;;;;5051881;28;20037;-72
2022/01/28 12:17:30;;;;;;;13.97;3.00;;;7.30;99.90;;;;;;5052097;28;20108;-72
2022/01/28 12:20:36;;;;;;;18.07;2.10;;;7.20;99.90;;;;;;5052042;28;20559;-73
2022/01/28 12:23:05;;;;;;;15.47;2.50;;;7.30;99.90;;;;;;5031008;28;20041;-73
2022/01/28 12:25:36;;;;;;;20.83;3.57;;;7.30;99.90;;;;;;5051430;28;20033;-73
2022/01/28 12:28:22;;;;;;;16.00;2.43;;;7.30;99.90;;;;;;5033916;28;20036;-72
2022/01/28 12:31:12;;;;;;;16.57;2.93;;;7.30;99.90;;;;;;5033815;28;20401;-73
2022/01/28 12:33:46;;;;;;;22.87;3.80;;;7.40;99.90;;;;;;5027711;28;20048;-73
2022/01/28 12:36:15;;;;;;;16.27;2.60;;;7.40;99.90;;;;;;5033615;28;20036;-73
2022/01/28 12:41:24;;;;;;;18.93;2.83;;;7.50;99.90;;;;;;5033507;28;20041;-73
2022/01/28 12:43:50;;;;;;;10.17;2.00;;;7.60;99.90;;;;;;5032900;28;20499;-74
2022/01/28 12:46:16;;;;;;;14.80;2.47;;;7.50;99.90;;;;;;5032753;28;20028;-73
2022/01/28 12:48:51;;;;;;;17.20;2.00;;;7.50;99.90;;;;;;5033650;28;20061;-74
2022/01/28 12:51:21;;;;;;;13.43;2.33;;;7.50;99.90;;;;;;5051285;28;20033;-73
2022/01/28 12:53:53;;;;;;;18.20;2.50;;;7.40;99.90;;;;;;5050846;28;20028;-73
2022/01/28 12:56:34;;;;;;;15.57;2.93;;;7.40;99.90;;;;;;5051138;28;20036;-73
2022/01/28 12:59:02;;;;;;;18.43;2.97;;;7.30;99.90;;;;;;5033365;28;20112;-73
2022/01/28 13:01:29;;;;;;;13.57;3.40;;;7.30;99.90;;;;;;5051043;28;20086;-73
2022/01/28 13:04:14;;;;;;;18.77;3.63;;;7.30;99.90;;;;;;5051042;28;20471;-74
2022/01/28 13:07:00;;;;;;;13.83;2.73;;;7.40;99.90;;;;;;5051254;28;20405;-73
2022/01/28 13:09:26;;;;;;;14.20;2.33;;;7.50;99.90;;;;;;5051171;28;20095;-73
2022/01/28 13:11:57;;;;;;;15.57;2.30;;;7.50;99.90;;;;;;5033169;28;20031;-73
2022/01/28 13:14:34;;;;;;;12.80;2.30;;;7.60;99.90;;;;;;5050856;28;20032;-73
2022/01/28 13:17:02;;;;;;;21.20;5.10;;;7.60;99.90;;;;;;5032959;28;20492;-73
2022/01/28 13:19:28;;;;;;;15.30;4.07;;;7.60;99.90;;;;;;5050870;28;20643;-73
2022/01/28 13:21:55;;;;;;;17.37;3.93;;;7.50;99.90;;;;;;5033327;28;20108;-73
2022/01/28 13:24:23;;;;;;;15.77;2.73;;;7.50;99.90;;;;;;5033025;28;20104;-73
2022/01/28 13:27:02;;;;;;;14.03;2.50;;;7.50;99.90;;;;;;5033011;28;20075;-74
2022/01/28 13:29:39;;;;;;;14.77;2.40;;;7.50;99.90;;;;;;5050929;28;20025;-73
2022/01/28 13:32:11;;;;;;;12.23;3.10;;;7.40;99.90;;;;;;5050868;28;20025;-73
2022/01/28 13:34:56;;;;;;;18.30;2.83;;;7.50;99.90;;;;;;5051137;28;20029;-73
2022/01/28 13:37:40;;;;;;;15.97;2.80;;;7.50;99.90;;;;;;5050750;28;20040;-73
2022/01/28 13:40:18;;;;;;;15.27;2.93;;;7.60;99.90;;;;;;5050812;28;20039;-74
2022/01/28 13:43:00;;;;;;;10.87;1.93;;;7.50;99.90;;;;;;5050507;28;20107;-74
2022/01/28 13:45:35;;;;;;;15.77;2.20;;;7.50;99.90;;;;;;5050508;28;20079;-74
2022/01/28 13:48:05;;;;;;;20.93;2.97;;;7.50;99.90;;;;;;5050478;28;20031;-75
2022/01/28 13:50:38;;;;;;;15.63;2.60;;;7.40;99.90;;;;;;5050563;28;20029;-74
2022/01/28 13:55:59;;;;;;;;;;;7.40;99.90;;;;;;5051005;28;20502;-74
2022/01/28 13:58:25;;;;;;;10.20;2.20;;;7.40;99.90;;;;;;5053703;28;20418;-74
2022/01/28 14:00:52;;;;;;;17.27;2.40;;;7.50;99.90;;;;;;5036894;28;20040;-74
2022/01/28 14:03:20;;;;;;;18.37;4.37;;;7.50;99.90;;;;;;5054403;28;20120;-74
2022/01/28 14:06:00;;;;;;;16.00;3.83;;;7.40;99.90;;;;;;5054154;28;20087;-74
2022/01/28 14:08:56;;;;;;;15.27;2.93;;;7.40;99.90;;;;;;5036483;28;20125;-74
2022/01/28 14:11:31;;;;;;;16.60;2.80;;;7.50;99.90;;;;;;5045204;28;20037;-74
2022/01/28 14:14:41;;;;;;;13.97;2.50;;;7.50;99.90;;;;;;5054160;28;20409;-73
2022/01/28 14:17:08;;;;;;;;;;;7.50;99.90;;;;;;5054459;28;20060;-74
2022/01/28 14:19:36;;;;;;;18.10;2.50;;;7.50;99.90;;;;;;5053918;28;20276;-74
2022/01/28 14:22:02;;;;;;;16.23;2.87;;;7.50;99.90;;;;;;5054007;28;20033;-74
2022/01/28 14:24:30;;;;;;;11.73;2.30;;;7.50;99.90;;;;;;5053728;28;20039;-74
2022/01/28 14:27:13;;;;;;;9.87;2.00;;;7.60;99.90;;;;;;5019513;28;20140;-73